Roscoe, MT (59071)

10:02 AM MST on February 06, 2016 (GMT -0700)
Willow Creek Road | | Change Station
CLOSE
Current Station
Personal Weather Station
Location: Red Lodge, MT
Elevation: 5102 ft
Nearby Weather Stations
Active Advisory: High Wind Warning

Elev 5102 ft 45.27 °N, 109.26 °W | Updated 3 minutes ago

Clear
Clear
45.5 °F
Feels Like 37 °F
N
23.8
Wind Variable Wind from WNW

Today
High -- | Low -- °F
--% Chance of Precip.
Yesterday
High -- | Low -- °F
Precip. -- in
Pressure 30.01 in
Visibility 10.0 miles
Clouds Few 10000 ft
Scattered Clouds 14000 ft
Scattered Clouds 20000 ft
Windchill 37 °F
Dew Point 17 °F
Humidity 32%
Rainfall 0.00 in
Snow Depth Not available.
7:32 AM 5:31 PM
Waning Crescent, 5% visible
METAR KBIL 061653Z 25017G24KT 10SM FEW100 SCT140 SCT200 06/M09 A2996 RMK AO2 PK WND 24030/1641 SLP161 T00611094
Pressure 30.01 in
Visibility 10.0 miles
Clouds Few 10000 ft
Scattered Clouds 14000 ft
Scattered Clouds 20000 ft
Windchill 37 °F
Dew Point 17 °F
Humidity 32%
Rainfall 0.00 in
Snow Depth Not available.
7:32 AM 5:31 PM
Waning Crescent, 5% visible
METAR KBIL 061653Z 25017G24KT 10SM FEW100 SCT140 SCT200 06/M09 A2996 RMK AO2 PK WND 24030/1641 SLP161 T00611094

10-Day Weather Forecast

Almanac

Astronomy

Feb. 06, 2016 Rise Set
Actual Time
Civil Twilight
Nautical Twilight
Astronomical Twilight
Moon
Length of Visible Light
Length of Day
Tomorrow will be .
, % of the Moon is Illuminated

Today's Extremes

State Highs State Lows

Community

WunderPhotos

Upload Photos

1,891,024 photos uploaded!

WunderBlog® & News

Nearby

Air Quality

  Air Quality AQ Index Pollutant
Not available.

Snow Depth

Station Depth Elevation

Earthquake Activity

City Distance Mag. Time & Date
Minimum magnitude displayed is 2.5.

Coastal Water Temperatures

Place Temperature

Stations

Nearby Weather Stations

Station Location Temp. Windchill Dew Point Humidity Wind Precip. Elev Updated Type
                   

Watches & Warnings

High Wind Warning
Issued: 9:25 AM MST Feb. 6, 2016 – National Weather Service

... High Wind Warning remains in effect until 11 PM MST this
evening...

* impacts... dangerous cross winds will make travel hazardous for
high profile and Load carrying vehicles along Interstate 90...
Interstate 94... and US Highway 12... 87 and 212.

* Timing... west to northwest winds will begin to spread east
across the area by late morning behind a cold front... and
continue through the day. Winds are expected to diminish this
evening.

* Winds... peak gusts up to 65 mph are expected.

Precautionary/preparedness actions...

Winds of these magnitudes can cause property damage without extra
precautions. Motorists in high profile vehicles should use
caution until the winds subside.